OIMB  Birjand  Airport

Birjand, Iran

Add Bookmark
ICAO OIMB
Type Airport
Status Operational
Latitude
32° 53' 53" N
32.898102
Longitude
59° 15' 57" E
59.266102
Local (GMT +4.5 ) UTC
May 25, 2016 01:57 am May 24, 2016 21:27
Sunrise-Sunset Local UTC
Begin Civil Twilight 04:58 am 00:28
Sunrise 05:26 am 00:56
Sunset 07:33 pm 15:03
End Civil Twilight 08:01 pm 15:31
VFR
VFR
MVFR
MVFR
IFR
IFR
LIFR
LIFR
Unknown
Unavailable

Current Weather

METAR Observed VFR
OIMB 242000Z 04008KT CAVOK 22/M01 Q1013 Tue, May 24, 2016 @ 20:00 UTC
(1 Hour, 27 Minutes ago)
Visual Flight Rules
Wind Visibility Conditions
040° at 8 knots (15 kph) 10 km or more
  • No significant weather
Temperatures Readings Precipitation
Current Temp
22°C
72°F
Dewpoint
-1°C
30°F
Humidity 22%
Altimeter 29.91" Hg
Sea Level Pressure 1,013 mb
Field Elevation
1,491 m
4,892 ft
None Recorded
-
-

CheckWX.com is intended as a tool to help pilots better visualize weather data. It is not intended as a substitute for an official weather briefing obtained from a Flight Service Station. CheckWX.com does not meet the FAA requirements for an official pre-flight weather briefing. Therefore, it's important that pilots still call and obtain an official FSS pre-flight weather briefing.

© 2007-2016 CheckWX.com
21:27:53 UTC